sensor_id;sensor_type;location;lat;lon;timestamp;P1;durP1;ratioP1;P2;durP2;ratioP2
59189;SDS011;50749;51.636;4.948;2023-12-28T00:00:10;1.75;;;1.00;;
59189;SDS011;50749;51.636;4.948;2023-12-28T00:02:59;3.25;;;1.15;;
59189;SDS011;50749;51.636;4.948;2023-12-28T00:05:28;2.33;;;1.42;;
59189;SDS011;50749;51.636;4.948;2023-12-28T00:08:00;2.88;;;1.20;;
59189;SDS011;50749;51.636;4.948;2023-12-28T00:10:28;2.58;;;1.02;;
59189;SDS011;50749;51.636;4.948;2023-12-28T00:12:57;2.65;;;1.23;;
59189;SDS011;50749;51.636;4.948;2023-12-28T00:15:26;1.95;;;1.17;;
59189;SDS011;50749;51.636;4.948;2023-12-28T00:17:55;2.65;;;1.00;;
59189;SDS011;50749;51.636;4.948;2023-12-28T00:20:23;1.65;;;1.00;;
59189;SDS011;50749;51.636;4.948;2023-12-28T00:22:52;1.67;;;1.08;;
59189;SDS011;50749;51.636;4.948;2023-12-28T00:25:23;2.08;;;1.10;;
59189;SDS011;50749;51.636;4.948;2023-12-28T00:27:52;2.67;;;1.25;;
59189;SDS011;50749;51.636;4.948;2023-12-28T00:30:21;3.63;;;1.08;;
59189;SDS011;50749;51.636;4.948;2023-12-28T00:32:50;1.85;;;1.00;;
59189;SDS011;50749;51.636;4.948;2023-12-28T00:35:19;2.92;;;1.10;;
59189;SDS011;50749;51.636;4.948;2023-12-28T00:37:48;3.63;;;1.38;;
59189;SDS011;50749;51.636;4.948;2023-12-28T00:40:17;2.45;;;1.10;;
59189;SDS011;50749;51.636;4.948;2023-12-28T00:42:50;1.92;;;1.10;;
59189;SDS011;50749;51.636;4.948;2023-12-28T00:45:18;5.10;;;1.17;;
59189;SDS011;50749;51.636;4.948;2023-12-28T00:47:47;3.28;;;1.10;;
59189;SDS011;50749;51.636;4.948;2023-12-28T00:50:17;2.20;;;1.20;;
59189;SDS011;50749;51.636;4.948;2023-12-28T00:52:46;2.20;;;0.90;;
59189;SDS011;50749;51.636;4.948;2023-12-28T00:55:15;2.30;;;0.98;;
59189;SDS011;50749;51.636;4.948;2023-12-28T00:57:43;1.98;;;1.40;;
59189;SDS011;50749;51.636;4.948;2023-12-28T01:00:15;2.15;;;1.00;;
59189;SDS011;50749;51.636;4.948;2023-12-28T01:02:44;2.63;;;1.20;;
59189;SDS011;50749;51.636;4.948;2023-12-28T01:05:14;2.13;;;0.80;;
59189;SDS011;50749;51.636;4.948;2023-12-28T01:07:43;2.25;;;1.13;;
59189;SDS011;50749;51.636;4.948;2023-12-28T01:10:12;2.50;;;1.17;;
59189;SDS011;50749;51.636;4.948;2023-12-28T01:12:41;1.52;;;0.73;;
59189;SDS011;50749;51.636;4.948;2023-12-28T01:15:10;2.47;;;1.10;;
59189;SDS011;50749;51.636;4.948;2023-12-28T01:17:41;2.33;;;0.90;;
59189;SDS011;50749;51.636;4.948;2023-12-28T01:20:10;2.55;;;1.42;;
59189;SDS011;50749;51.636;4.948;2023-12-28T01:22:39;2.15;;;0.80;;
59189;SDS011;50749;51.636;4.948;2023-12-28T01:25:08;3.97;;;1.00;;
59189;SDS011;50749;51.636;4.948;2023-12-28T01:27:37;1.63;;;0.80;;
59189;SDS011;50749;51.636;4.948;2023-12-28T01:30:06;2.85;;;1.08;;
59189;SDS011;50749;51.636;4.948;2023-12-28T01:32:36;2.38;;;1.10;;
59189;SDS011;50749;51.636;4.948;2023-12-28T01:35:07;2.72;;;1.10;;
59189;SDS011;50749;51.636;4.948;2023-12-28T01:37:36;4.40;;;1.15;;
59189;SDS011;50749;51.636;4.948;2023-12-28T01:40:05;5.18;;;1.25;;
59189;SDS011;50749;51.636;4.948;2023-12-28T01:42:35;3.17;;;1.10;;
59189;SDS011;50749;51.636;4.948;2023-12-28T01:45:05;2.65;;;1.38;;
59189;SDS011;50749;51.636;4.948;2023-12-28T01:47:34;1.83;;;1.05;;
59189;SDS011;50749;51.636;4.948;2023-12-28T01:50:03;3.67;;;1.05;;
59189;SDS011;50749;51.636;4.948;2023-12-28T01:52:38;2.10;;;0.95;;
59189;SDS011;50749;51.636;4.948;2023-12-28T01:55:07;2.03;;;1.10;;
59189;SDS011;50749;51.636;4.948;2023-12-28T01:57:37;2.35;;;1.25;;
59189;SDS011;50749;51.636;4.948;2023-12-28T02:00:06;1.63;;;0.93;;
59189;SDS011;50749;51.636;4.948;2023-12-28T02:02:36;1.50;;;0.95;;
59189;SDS011;50749;51.636;4.948;2023-12-28T02:05:05;2.40;;;1.00;;
59189;SDS011;50749;51.636;4.948;2023-12-28T02:07:37;2.25;;;0.90;;
59189;SDS011;50749;51.636;4.948;2023-12-28T02:10:06;1.73;;;0.98;;
59189;SDS011;50749;51.636;4.948;2023-12-28T02:12:37;2.95;;;1.20;;
59189;SDS011;50749;51.636;4.948;2023-12-28T02:15:06;4.72;;;1.13;;
59189;SDS011;50749;51.636;4.948;2023-12-28T02:17:38;4.03;;;1.30;;
59189;SDS011;50749;51.636;4.948;2023-12-28T02:20:17;1.50;;;0.70;;
59189;SDS011;50749;51.636;4.948;2023-12-28T02:22:49;3.08;;;0.98;;
59189;SDS011;50749;51.636;4.948;2023-12-28T02:25:21;1.27;;;0.77;;
59189;SDS011;50749;51.636;4.948;2023-12-28T02:27:50;4.03;;;0.93;;
59189;SDS011;50749;51.636;4.948;2023-12-28T02:30:20;2.53;;;1.00;;
59189;SDS011;50749;51.636;4.948;2023-12-28T02:32:52;2.80;;;1.70;;
59189;SDS011;50749;51.636;4.948;2023-12-28T02:35:29;1.77;;;1.00;;
59189;SDS011;50749;51.636;4.948;2023-12-28T02:38:02;2.90;;;0.90;;
59189;SDS011;50749;51.636;4.948;2023-12-28T02:40:37;3.08;;;1.10;;
59189;SDS011;50749;51.636;4.948;2023-12-28T02:43:06;4.82;;;1.40;;
59189;SDS011;50749;51.636;4.948;2023-12-28T02:45:36;1.65;;;0.88;;
59189;SDS011;50749;51.636;4.948;2023-12-28T02:48:06;2.30;;;1.02;;
59189;SDS011;50749;51.636;4.948;2023-12-28T02:50:35;3.30;;;1.10;;
59189;SDS011;50749;51.636;4.948;2023-12-28T02:53:04;5.38;;;1.65;;
59189;SDS011;50749;51.636;4.948;2023-12-28T02:55:33;2.67;;;1.05;;
59189;SDS011;50749;51.636;4.948;2023-12-28T02:58:04;1.45;;;0.77;;
59189;SDS011;50749;51.636;4.948;2023-12-28T03:00:33;3.17;;;1.20;;
59189;SDS011;50749;51.636;4.948;2023-12-28T03:03:02;1.15;;;0.82;;
59189;SDS011;50749;51.636;4.948;2023-12-28T03:05:31;2.35;;;0.93;;
59189;SDS011;50749;51.636;4.948;2023-12-28T03:08:00;3.55;;;1.25;;
59189;SDS011;50749;51.636;4.948;2023-12-28T03:10:28;3.47;;;1.13;;
59189;SDS011;50749;51.636;4.948;2023-12-28T03:13:00;1.85;;;0.77;;
59189;SDS011;50749;51.636;4.948;2023-12-28T03:15:28;2.17;;;1.05;;
59189;SDS011;50749;51.636;4.948;2023-12-28T03:17:57;1.33;;;1.02;;
59189;SDS011;50749;51.636;4.948;2023-12-28T03:20:26;2.28;;;0.73;;
59189;SDS011;50749;51.636;4.948;2023-12-28T03:22:55;1.88;;;0.98;;
59189;SDS011;50749;51.636;4.948;2023-12-28T03:25:23;1.90;;;0.93;;
59189;SDS011;50749;51.636;4.948;2023-12-28T03:27:52;3.13;;;0.70;;
59189;SDS011;50749;51.636;4.948;2023-12-28T03:30:23;3.05;;;1.02;;
59189;SDS011;50749;51.636;4.948;2023-12-28T03:32:52;3.40;;;1.27;;
59189;SDS011;50749;51.636;4.948;2023-12-28T03:35:21;2.83;;;0.80;;
59189;SDS011;50749;51.636;4.948;2023-12-28T03:37:50;3.30;;;0.82;;
59189;SDS011;50749;51.636;4.948;2023-12-28T03:40:18;2.30;;;0.98;;
59189;SDS011;50749;51.636;4.948;2023-12-28T03:42:47;3.15;;;1.00;;
59189;SDS011;50749;51.636;4.948;2023-12-28T03:45:16;3.28;;;1.20;;
59189;SDS011;50749;51.636;4.948;2023-12-28T03:47:48;4.78;;;1.17;;
59189;SDS011;50749;51.636;4.948;2023-12-28T03:50:16;4.80;;;1.60;;
59189;SDS011;50749;51.636;4.948;2023-12-28T03:52:45;7.57;;;1.48;;
59189;SDS011;50749;51.636;4.948;2023-12-28T03:55:14;2.08;;;0.88;;
59189;SDS011;50749;51.636;4.948;2023-12-28T03:57:43;6.45;;;1.10;;
59189;SDS011;50749;51.636;4.948;2023-12-28T04:00:13;3.65;;;1.17;;
59189;SDS011;50749;51.636;4.948;2023-12-28T04:02:42;5.38;;;1.10;;
59189;SDS011;50749;51.636;4.948;2023-12-28T04:05:13;2.85;;;1.00;;
59189;SDS011;50749;51.636;4.948;2023-12-28T04:07:42;2.05;;;0.90;;
59189;SDS011;50749;51.636;4.948;2023-12-28T04:10:11;2.38;;;0.82;;
59189;SDS011;50749;51.636;4.948;2023-12-28T04:12:40;2.40;;;0.95;;
59189;SDS011;50749;51.636;4.948;2023-12-28T04:15:09;2.30;;;1.13;;
59189;SDS011;50749;51.636;4.948;2023-12-28T04:17:38;1.98;;;0.90;;
59189;SDS011;50749;51.636;4.948;2023-12-28T04:20:07;1.85;;;0.75;;
59189;SDS011;50749;51.636;4.948;2023-12-28T04:22:39;1.45;;;0.60;;
59189;SDS011;50749;51.636;4.948;2023-12-28T04:25:08;1.63;;;0.85;;
59189;SDS011;50749;51.636;4.948;2023-12-28T04:27:38;2.95;;;1.30;;
59189;SDS011;50749;51.636;4.948;2023-12-28T04:30:07;1.77;;;0.90;;
59189;SDS011;50749;51.636;4.948;2023-12-28T04:32:40;1.73;;;0.90;;
59189;SDS011;50749;51.636;4.948;2023-12-28T04:35:08;3.65;;;0.98;;
59189;SDS011;50749;51.636;4.948;2023-12-28T04:37:40;1.52;;;0.70;;
59189;SDS011;50749;51.636;4.948;2023-12-28T04:40:09;1.63;;;0.75;;
59189;SDS011;50749;51.636;4.948;2023-12-28T04:42:40;2.42;;;1.15;;
59189;SDS011;50749;51.636;4.948;2023-12-28T04:45:08;2.03;;;0.70;;
59189;SDS011;50749;51.636;4.948;2023-12-28T04:47:38;1.73;;;0.80;;
59189;SDS011;50749;51.636;4.948;2023-12-28T04:50:07;2.13;;;0.80;;
59189;SDS011;50749;51.636;4.948;2023-12-28T04:52:36;3.20;;;0.90;;
59189;SDS011;50749;51.636;4.948;2023-12-28T04:55:09;1.75;;;0.82;;
59189;SDS011;50749;51.636;4.948;2023-12-28T04:57:38;4.50;;;0.98;;
59189;SDS011;50749;51.636;4.948;2023-12-28T05:00:09;3.92;;;0.73;;
59189;SDS011;50749;51.636;4.948;2023-12-28T05:02:38;3.85;;;1.00;;
59189;SDS011;50749;51.636;4.948;2023-12-28T05:05:07;4.18;;;1.38;;
59189;SDS011;50749;51.636;4.948;2023-12-28T05:07:37;5.50;;;1.25;;
59189;SDS011;50749;51.636;4.948;2023-12-28T05:10:09;2.90;;;0.88;;
59189;SDS011;50749;51.636;4.948;2023-12-28T05:12:37;3.20;;;0.90;;
59189;SDS011;50749;51.636;4.948;2023-12-28T05:15:06;5.10;;;0.80;;
59189;SDS011;50749;51.636;4.948;2023-12-28T05:17:36;3.75;;;1.13;;
59189;SDS011;50749;51.636;4.948;2023-12-28T05:20:05;1.60;;;0.68;;
59189;SDS011;50749;51.636;4.948;2023-12-28T05:22:34;6.30;;;1.00;;
59189;SDS011;50749;51.636;4.948;2023-12-28T05:25:04;3.17;;;0.90;;
59189;SDS011;50749;51.636;4.948;2023-12-28T05:27:35;1.55;;;0.73;;
59189;SDS011;50749;51.636;4.948;2023-12-28T05:30:06;2.92;;;1.13;;
59189;SDS011;50749;51.636;4.948;2023-12-28T05:32:36;3.35;;;1.15;;
59189;SDS011;50749;51.636;4.948;2023-12-28T05:35:05;2.38;;;1.00;;
59189;SDS011;50749;51.636;4.948;2023-12-28T05:37:35;3.08;;;0.98;;
59189;SDS011;50749;51.636;4.948;2023-12-28T05:40:04;2.85;;;0.98;;
59189;SDS011;50749;51.636;4.948;2023-12-28T05:42:37;3.65;;;0.73;;
59189;SDS011;50749;51.636;4.948;2023-12-28T05:45:06;3.50;;;1.20;;
59189;SDS011;50749;51.636;4.948;2023-12-28T05:47:36;2.72;;;1.05;;
59189;SDS011;50749;51.636;4.948;2023-12-28T05:50:05;3.03;;;0.90;;
59189;SDS011;50749;51.636;4.948;2023-12-28T05:52:34;2.80;;;0.90;;
59189;SDS011;50749;51.636;4.948;2023-12-28T05:55:03;3.35;;;1.00;;
59189;SDS011;50749;51.636;4.948;2023-12-28T05:57:32;4.05;;;0.88;;
59189;SDS011;50749;51.636;4.948;2023-12-28T06:00:04;5.25;;;1.00;;
59189;SDS011;50749;51.636;4.948;2023-12-28T06:02:35;3.20;;;1.00;;
59189;SDS011;50749;51.636;4.948;2023-12-28T06:05:04;4.43;;;1.05;;
59189;SDS011;50749;51.636;4.948;2023-12-28T06:07:33;1.75;;;0.70;;
59189;SDS011;50749;51.636;4.948;2023-12-28T06:10:02;2.63;;;0.90;;
59189;SDS011;50749;51.636;4.948;2023-12-28T06:12:31;2.72;;;0.85;;
59189;SDS011;50749;51.636;4.948;2023-12-28T06:15:00;4.47;;;1.33;;
59189;SDS011;50749;51.636;4.948;2023-12-28T06:17:32;2.83;;;1.00;;
59189;SDS011;50749;51.636;4.948;2023-12-28T06:20:00;1.55;;;0.93;;
59189;SDS011;50749;51.636;4.948;2023-12-28T06:22:30;3.85;;;0.80;;
59189;SDS011;50749;51.636;4.948;2023-12-28T06:24:58;4.57;;;0.90;;
59189;SDS011;50749;51.636;4.948;2023-12-28T06:27:29;1.70;;;0.80;;
59189;SDS011;50749;51.636;4.948;2023-12-28T06:29:58;1.10;;;0.47;;
59189;SDS011;50749;51.636;4.948;2023-12-28T06:32:27;8.07;;;1.15;;
59189;SDS011;50749;51.636;4.948;2023-12-28T06:34:58;2.75;;;1.05;;
59189;SDS011;50749;51.636;4.948;2023-12-28T06:37:27;2.58;;;0.70;;
59189;SDS011;50749;51.636;4.948;2023-12-28T06:39:56;4.38;;;0.90;;
59189;SDS011;50749;51.636;4.948;2023-12-28T06:42:24;7.32;;;0.85;;
59189;SDS011;50749;51.636;4.948;2023-12-28T06:44:53;3.33;;;0.98;;
59189;SDS011;50749;51.636;4.948;2023-12-28T06:47:22;5.57;;;0.98;;
59189;SDS011;50749;51.636;4.948;2023-12-28T06:49:50;2.25;;;1.05;;
59189;SDS011;50749;51.636;4.948;2023-12-28T06:52:22;2.97;;;0.85;;
59189;SDS011;50749;51.636;4.948;2023-12-28T06:54:50;3.00;;;1.00;;
59189;SDS011;50749;51.636;4.948;2023-12-28T06:57:19;2.90;;;1.00;;
59189;SDS011;50749;51.636;4.948;2023-12-28T06:59:48;2.60;;;1.10;;
59189;SDS011;50749;51.636;4.948;2023-12-28T07:02:17;7.63;;;1.38;;
59189;SDS011;50749;51.636;4.948;2023-12-28T07:04:45;5.10;;;1.13;;
59189;SDS011;50749;51.636;4.948;2023-12-28T07:07:15;4.15;;;0.90;;
59189;SDS011;50749;51.636;4.948;2023-12-28T07:09:46;3.53;;;0.88;;
59189;SDS011;50749;51.636;4.948;2023-12-28T07:12:15;2.47;;;0.75;;
59189;SDS011;50749;51.636;4.948;2023-12-28T07:14:45;2.88;;;1.58;;
59189;SDS011;50749;51.636;4.948;2023-12-28T07:17:14;3.50;;;1.10;;
59189;SDS011;50749;51.636;4.948;2023-12-28T07:19:43;2.63;;;0.88;;
59189;SDS011;50749;51.636;4.948;2023-12-28T07:22:12;2.08;;;1.02;;
59189;SDS011;50749;51.636;4.948;2023-12-28T07:24:41;4.18;;;1.15;;
59189;SDS011;50749;51.636;4.948;2023-12-28T07:27:12;5.20;;;1.10;;
59189;SDS011;50749;51.636;4.948;2023-12-28T07:29:41;4.45;;;1.10;;
59189;SDS011;50749;51.636;4.948;2023-12-28T07:32:10;3.53;;;1.30;;
59189;SDS011;50749;51.636;4.948;2023-12-28T07:34:39;5.60;;;1.00;;
59189;SDS011;50749;51.636;4.948;2023-12-28T07:37:08;5.47;;;0.85;;
59189;SDS011;50749;51.636;4.948;2023-12-28T07:39:36;4.72;;;1.05;;
59189;SDS011;50749;51.636;4.948;2023-12-28T07:42:06;4.20;;;1.13;;
59189;SDS011;50749;51.636;4.948;2023-12-28T07:44:37;9.00;;;1.45;;
59189;SDS011;50749;51.636;4.948;2023-12-28T07:47:06;4.88;;;1.10;;
59189;SDS011;50749;51.636;4.948;2023-12-28T07:49:35;4.07;;;1.30;;
59189;SDS011;50749;51.636;4.948;2023-12-28T07:52:04;5.80;;;1.00;;
59189;SDS011;50749;51.636;4.948;2023-12-28T07:54:33;5.25;;;1.27;;
59189;SDS011;50749;51.636;4.948;2023-12-28T07:57:02;6.75;;;1.27;;
59189;SDS011;50749;51.636;4.948;2023-12-28T07:59:30;6.75;;;1.50;;
59189;SDS011;50749;51.636;4.948;2023-12-28T08:02:02;4.93;;;1.20;;
59189;SDS011;50749;51.636;4.948;2023-12-28T08:04:30;3.67;;;0.88;;
59189;SDS011;50749;51.636;4.948;2023-12-28T08:06:59;4.03;;;1.00;;
59189;SDS011;50749;51.636;4.948;2023-12-28T08:09:29;6.88;;;1.35;;
59189;SDS011;50749;51.636;4.948;2023-12-28T08:11:58;3.78;;;1.17;;
59189;SDS011;50749;51.636;4.948;2023-12-28T08:14:27;7.55;;;1.15;;
59189;SDS011;50749;51.636;4.948;2023-12-28T08:16:57;4.50;;;1.13;;
59189;SDS011;50749;51.636;4.948;2023-12-28T08:19:28;8.00;;;1.20;;
59189;SDS011;50749;51.636;4.948;2023-12-28T08:21:57;6.50;;;1.63;;
59189;SDS011;50749;51.636;4.948;2023-12-28T08:24:25;5.88;;;1.30;;
59189;SDS011;50749;51.636;4.948;2023-12-28T08:26:55;7.32;;;1.20;;
59189;SDS011;50749;51.636;4.948;2023-12-28T08:29:24;9.98;;;1.67;;
59189;SDS011;50749;51.636;4.948;2023-12-28T08:31:53;6.20;;;1.50;;
59189;SDS011;50749;51.636;4.948;2023-12-28T08:34:22;7.03;;;1.17;;
59189;SDS011;50749;51.636;4.948;2023-12-28T08:36:54;6.50;;;1.35;;
59189;SDS011;50749;51.636;4.948;2023-12-28T08:39:22;5.22;;;1.30;;
59189;SDS011;50749;51.636;4.948;2023-12-28T08:41:51;9.10;;;1.35;;
59189;SDS011;50749;51.636;4.948;2023-12-28T08:44:20;6.78;;;1.38;;
59189;SDS011;50749;51.636;4.948;2023-12-28T08:46:48;8.18;;;1.63;;
59189;SDS011;50749;51.636;4.948;2023-12-28T08:49:17;4.10;;;1.30;;
59189;SDS011;50749;51.636;4.948;2023-12-28T08:51:47;5.90;;;1.50;;
59189;SDS011;50749;51.636;4.948;2023-12-28T08:54:19;11.80;;;1.52;;
59189;SDS011;50749;51.636;4.948;2023-12-28T08:56:48;6.05;;;1.40;;
59189;SDS011;50749;51.636;4.948;2023-12-28T08:59:16;8.55;;;1.48;;
59189;SDS011;50749;51.636;4.948;2023-12-28T09:01:45;5.47;;;1.70;;
59189;SDS011;50749;51.636;4.948;2023-12-28T09:04:14;8.02;;;1.30;;
59189;SDS011;50749;51.636;4.948;2023-12-28T09:06:43;3.50;;;1.00;;
59189;SDS011;50749;51.636;4.948;2023-12-28T09:09:11;6.22;;;1.30;;
59189;SDS011;50749;51.636;4.948;2023-12-28T09:11:43;3.88;;;1.45;;
59189;SDS011;50749;51.636;4.948;2023-12-28T09:14:11;6.10;;;1.20;;
59189;SDS011;50749;51.636;4.948;2023-12-28T09:16:40;6.18;;;1.40;;
59189;SDS011;50749;51.636;4.948;2023-12-28T09:19:10;3.90;;;1.60;;
59189;SDS011;50749;51.636;4.948;2023-12-28T09:21:39;7.43;;;1.52;;
59189;SDS011;50749;51.636;4.948;2023-12-28T09:24:07;5.55;;;1.10;;
59189;SDS011;50749;51.636;4.948;2023-12-28T09:26:36;5.05;;;1.17;;
59189;SDS011;50749;51.636;4.948;2023-12-28T09:29:07;5.63;;;1.10;;
59189;SDS011;50749;51.636;4.948;2023-12-28T09:31:37;9.50;;;1.92;;
59189;SDS011;50749;51.636;4.948;2023-12-28T09:34:06;10.02;;;1.80;;
59189;SDS011;50749;51.636;4.948;2023-12-28T09:36:35;4.38;;;1.50;;
59189;SDS011;50749;51.636;4.948;2023-12-28T09:39:03;5.63;;;1.38;;
59189;SDS011;50749;51.636;4.948;2023-12-28T09:41:34;6.72;;;1.23;;
59189;SDS011;50749;51.636;4.948;2023-12-28T09:44:11;2.35;;;1.17;;
59189;SDS011;50749;51.636;4.948;2023-12-28T09:46:41;6.25;;;1.63;;
59189;SDS011;50749;51.636;4.948;2023-12-28T09:49:11;7.38;;;1.25;;
59189;SDS011;50749;51.636;4.948;2023-12-28T09:51:40;7.03;;;1.48;;
59189;SDS011;50749;51.636;4.948;2023-12-28T09:54:09;6.80;;;1.27;;
59189;SDS011;50749;51.636;4.948;2023-12-28T09:56:38;8.30;;;1.88;;
59189;SDS011;50749;51.636;4.948;2023-12-28T09:59:11;10.02;;;1.70;;
59189;SDS011;50749;51.636;4.948;2023-12-28T10:01:41;5.15;;;1.40;;
59189;SDS011;50749;51.636;4.948;2023-12-28T10:04:11;10.23;;;1.38;;
59189;SDS011;50749;51.636;4.948;2023-12-28T10:06:40;6.20;;;1.70;;
59189;SDS011;50749;51.636;4.948;2023-12-28T10:09:08;3.97;;;1.33;;
59189;SDS011;50749;51.636;4.948;2023-12-28T10:11:37;6.45;;;1.38;;
59189;SDS011;50749;51.636;4.948;2023-12-28T10:14:06;6.93;;;1.65;;
59189;SDS011;50749;51.636;4.948;2023-12-28T10:16:39;6.50;;;1.67;;
59189;SDS011;50749;51.636;4.948;2023-12-28T10:19:08;5.53;;;1.35;;
59189;SDS011;50749;51.636;4.948;2023-12-28T10:21:38;4.10;;;1.42;;
59189;SDS011;50749;51.636;4.948;2023-12-28T10:24:09;6.00;;;1.65;;
59189;SDS011;50749;51.636;4.948;2023-12-28T10:26:38;6.85;;;1.63;;
59189;SDS011;50749;51.636;4.948;2023-12-28T10:29:07;8.27;;;1.30;;
59189;SDS011;50749;51.636;4.948;2023-12-28T10:31:40;8.90;;;2.33;;
59189;SDS011;50749;51.636;4.948;2023-12-28T10:34:14;10.27;;;1.35;;
59189;SDS011;50749;51.636;4.948;2023-12-28T10:36:43;10.60;;;2.17;;
59189;SDS011;50749;51.636;4.948;2023-12-28T10:39:14;4.78;;;1.27;;
59189;SDS011;50749;51.636;4.948;2023-12-28T10:41:49;8.48;;;2.05;;
59189;SDS011;50749;51.636;4.948;2023-12-28T10:44:19;5.47;;;1.38;;
59189;SDS011;50749;51.636;4.948;2023-12-28T10:46:54;6.68;;;1.30;;
59189;SDS011;50749;51.636;4.948;2023-12-28T10:49:29;6.60;;;1.50;;
59189;SDS011;50749;51.636;4.948;2023-12-28T10:52:01;6.88;;;1.85;;
59189;SDS011;50749;51.636;4.948;2023-12-28T10:54:37;6.18;;;1.40;;
59189;SDS011;50749;51.636;4.948;2023-12-28T10:57:15;7.82;;;1.55;;
59189;SDS011;50749;51.636;4.948;2023-12-28T10:59:54;9.27;;;2.05;;
59189;SDS011;50749;51.636;4.948;2023-12-28T11:02:33;11.05;;;1.98;;
59189;SDS011;50749;51.636;4.948;2023-12-28T11:05:07;4.55;;;1.35;;
59189;SDS011;50749;51.636;4.948;2023-12-28T11:07:36;9.25;;;1.75;;
59189;SDS011;50749;51.636;4.948;2023-12-28T11:10:06;6.13;;;1.35;;
59189;SDS011;50749;51.636;4.948;2023-12-28T11:12:37;8.00;;;1.42;;
59189;SDS011;50749;51.636;4.948;2023-12-28T11:15:07;6.85;;;1.42;;
59189;SDS011;50749;51.636;4.948;2023-12-28T11:17:40;9.52;;;1.75;;
59189;SDS011;50749;51.636;4.948;2023-12-28T11:20:10;10.13;;;1.98;;
59189;SDS011;50749;51.636;4.948;2023-12-28T11:22:40;6.57;;;2.45;;
59189;SDS011;50749;51.636;4.948;2023-12-28T11:25:14;10.40;;;2.03;;
59189;SDS011;50749;51.636;4.948;2023-12-28T11:27:44;8.00;;;1.70;;
59189;SDS011;50749;51.636;4.948;2023-12-28T11:30:13;8.27;;;1.70;;
59189;SDS011;50749;51.636;4.948;2023-12-28T11:32:45;6.15;;;1.48;;
59189;SDS011;50749;51.636;4.948;2023-12-28T11:35:13;13.57;;;1.95;;
59189;SDS011;50749;51.636;4.948;2023-12-28T11:37:44;8.70;;;1.65;;
59189;SDS011;50749;51.636;4.948;2023-12-28T11:40:17;8.68;;;1.20;;
59189;SDS011;50749;51.636;4.948;2023-12-28T11:42:47;6.50;;;1.10;;
59189;SDS011;50749;51.636;4.948;2023-12-28T11:45:18;7.57;;;1.60;;
59189;SDS011;50749;51.636;4.948;2023-12-28T11:48:00;7.75;;;1.45;;
59189;SDS011;50749;51.636;4.948;2023-12-28T11:50:29;4.13;;;1.00;;
59189;SDS011;50749;51.636;4.948;2023-12-28T11:52:59;10.50;;;2.30;;
59189;SDS011;50749;51.636;4.948;2023-12-28T11:55:28;7.03;;;1.67;;
59189;SDS011;50749;51.636;4.948;2023-12-28T11:57:57;5.03;;;1.58;;
59189;SDS011;50749;51.636;4.948;2023-12-28T12:00:26;5.03;;;1.10;;
59189;SDS011;50749;51.636;4.948;2023-12-28T12:02:55;5.82;;;1.45;;
59189;SDS011;50749;51.636;4.948;2023-12-28T12:05:26;7.72;;;1.58;;
59189;SDS011;50749;51.636;4.948;2023-12-28T12:07:56;7.93;;;1.67;;
59189;SDS011;50749;51.636;4.948;2023-12-28T12:10:25;7.22;;;1.35;;
59189;SDS011;50749;51.636;4.948;2023-12-28T12:12:53;5.88;;;1.40;;
59189;SDS011;50749;51.636;4.948;2023-12-28T12:15:22;8.82;;;1.83;;
59189;SDS011;50749;51.636;4.948;2023-12-28T12:17:51;5.35;;;1.80;;
59189;SDS011;50749;51.636;4.948;2023-12-28T12:20:20;7.97;;;1.70;;
59189;SDS011;50749;51.636;4.948;2023-12-28T12:22:52;8.57;;;1.35;;
59189;SDS011;50749;51.636;4.948;2023-12-28T12:25:20;7.07;;;1.85;;
59189;SDS011;50749;51.636;4.948;2023-12-28T12:27:49;5.28;;;1.00;;
59189;SDS011;50749;51.636;4.948;2023-12-28T12:30:18;10.40;;;1.70;;
59189;SDS011;50749;51.636;4.948;2023-12-28T12:32:48;6.00;;;1.50;;
59189;SDS011;50749;51.636;4.948;2023-12-28T12:35:17;7.80;;;1.48;;
59189;SDS011;50749;51.636;4.948;2023-12-28T12:37:47;7.90;;;1.85;;
59189;SDS011;50749;51.636;4.948;2023-12-28T12:40:20;8.15;;;1.70;;
59189;SDS011;50749;51.636;4.948;2023-12-28T12:42:53;6.50;;;1.40;;
59189;SDS011;50749;51.636;4.948;2023-12-28T12:45:22;8.23;;;1.83;;
59189;SDS011;50749;51.636;4.948;2023-12-28T12:47:52;10.18;;;1.73;;
59189;SDS011;50749;51.636;4.948;2023-12-28T12:50:20;7.55;;;1.52;;
59189;SDS011;50749;51.636;4.948;2023-12-28T12:52:49;8.05;;;1.60;;
59189;SDS011;50749;51.636;4.948;2023-12-28T12:55:21;6.80;;;1.40;;
59189;SDS011;50749;51.636;4.948;2023-12-28T12:57:51;9.30;;;1.95;;
59189;SDS011;50749;51.636;4.948;2023-12-28T13:00:21;9.00;;;2.25;;
59189;SDS011;50749;51.636;4.948;2023-12-28T13:02:50;5.60;;;1.10;;
59189;SDS011;50749;51.636;4.948;2023-12-28T13:05:21;5.72;;;1.30;;
59189;SDS011;50749;51.636;4.948;2023-12-28T13:07:52;5.18;;;1.33;;
59189;SDS011;50749;51.636;4.948;2023-12-28T13:10:23;9.05;;;1.67;;
59189;SDS011;50749;51.636;4.948;2023-12-28T13:12:52;8.23;;;1.80;;
59189;SDS011;50749;51.636;4.948;2023-12-28T13:15:21;8.65;;;1.60;;
59189;SDS011;50749;51.636;4.948;2023-12-28T13:17:50;6.63;;;1.23;;
59189;SDS011;50749;51.636;4.948;2023-12-28T13:20:18;7.65;;;1.60;;
59189;SDS011;50749;51.636;4.948;2023-12-28T13:22:47;6.72;;;1.70;;
59189;SDS011;50749;51.636;4.948;2023-12-28T13:25:16;6.30;;;1.60;;
59189;SDS011;50749;51.636;4.948;2023-12-28T13:27:47;5.70;;;2.25;;
59189;SDS011;50749;51.636;4.948;2023-12-28T13:30:16;7.97;;;1.83;;
59189;SDS011;50749;51.636;4.948;2023-12-28T13:32:45;8.35;;;1.65;;
59189;SDS011;50749;51.636;4.948;2023-12-28T13:35:13;8.02;;;2.55;;
59189;SDS011;50749;51.636;4.948;2023-12-28T13:37:43;7.38;;;1.20;;
59189;SDS011;50749;51.636;4.948;2023-12-28T13:40:12;7.65;;;1.70;;
59189;SDS011;50749;51.636;4.948;2023-12-28T13:42:41;7.60;;;1.40;;
59189;SDS011;50749;51.636;4.948;2023-12-28T13:45:12;5.38;;;1.20;;
59189;SDS011;50749;51.636;4.948;2023-12-28T13:47:41;6.07;;;1.30;;
59189;SDS011;50749;51.636;4.948;2023-12-28T13:50:10;6.68;;;1.63;;
59189;SDS011;50749;51.636;4.948;2023-12-28T13:52:39;9.15;;;1.40;;
59189;SDS011;50749;51.636;4.948;2023-12-28T13:55:07;8.77;;;2.75;;
59189;SDS011;50749;51.636;4.948;2023-12-28T13:57:37;5.35;;;1.10;;
59189;SDS011;50749;51.636;4.948;2023-12-28T14:00:06;4.47;;;1.08;;
59189;SDS011;50749;51.636;4.948;2023-12-28T14:02:38;5.25;;;1.42;;
59189;SDS011;50749;51.636;4.948;2023-12-28T14:05:08;7.68;;;1.58;;
59189;SDS011;50749;51.636;4.948;2023-12-28T14:07:36;5.40;;;1.25;;
59189;SDS011;50749;51.636;4.948;2023-12-28T14:10:06;6.55;;;1.30;;
59189;SDS011;50749;51.636;4.948;2023-12-28T14:12:35;8.13;;;1.63;;
59189;SDS011;50749;51.636;4.948;2023-12-28T14:15:05;4.50;;;1.50;;
59189;SDS011;50749;51.636;4.948;2023-12-28T14:17:34;7.43;;;1.17;;
59189;SDS011;50749;51.636;4.948;2023-12-28T14:20:08;3.05;;;1.20;;
59189;SDS011;50749;51.636;4.948;2023-12-28T14:22:39;10.77;;;2.63;;
59189;SDS011;50749;51.636;4.948;2023-12-28T14:25:08;6.05;;;1.67;;
59189;SDS011;50749;51.636;4.948;2023-12-28T14:27:40;6.90;;;1.45;;
59189;SDS011;50749;51.636;4.948;2023-12-28T14:30:09;4.45;;;1.45;;
59189;SDS011;50749;51.636;4.948;2023-12-28T14:32:39;2.72;;;1.05;;
59189;SDS011;50749;51.636;4.948;2023-12-28T14:35:11;8.02;;;1.67;;
59189;SDS011;50749;51.636;4.948;2023-12-28T14:37:42;7.65;;;1.90;;
59189;SDS011;50749;51.636;4.948;2023-12-28T14:40:11;4.30;;;1.50;;
59189;SDS011;50749;51.636;4.948;2023-12-28T14:42:40;5.50;;;1.27;;
59189;SDS011;50749;51.636;4.948;2023-12-28T14:45:09;5.22;;;1.20;;
59189;SDS011;50749;51.636;4.948;2023-12-28T14:47:38;3.85;;;1.10;;
59189;SDS011;50749;51.636;4.948;2023-12-28T14:50:07;6.18;;;1.33;;
59189;SDS011;50749;51.636;4.948;2023-12-28T14:52:39;9.60;;;1.40;;
59189;SDS011;50749;51.636;4.948;2023-12-28T14:55:08;8.00;;;1.63;;
59189;SDS011;50749;51.636;4.948;2023-12-28T14:57:37;5.82;;;1.20;;
59189;SDS011;50749;51.636;4.948;2023-12-28T15:00:06;5.75;;;1.10;;
59189;SDS011;50749;51.636;4.948;2023-12-28T15:02:35;4.32;;;1.40;;